sensor_id;sensor_type;location;lat;lon;timestamp;temperature;humidity
14798;DHT22;7490;63.708;20.368;2023-05-14T00:00:42;10.90;77.10
14798;DHT22;7490;63.708;20.368;2023-05-14T00:03:08;10.90;77.10
14798;DHT22;7490;63.708;20.368;2023-05-14T00:05:34;10.90;77.40
14798;DHT22;7490;63.708;20.368;2023-05-14T00:08:00;10.80;77.60
14798;DHT22;7490;63.708;20.368;2023-05-14T00:10:26;10.80;77.80
14798;DHT22;7490;63.708;20.368;2023-05-14T00:12:52;10.80;78.00
14798;DHT22;7490;63.708;20.368;2023-05-14T00:15:18;10.80;78.20
14798;DHT22;7490;63.708;20.368;2023-05-14T00:17:44;10.80;78.30
14798;DHT22;7490;63.708;20.368;2023-05-14T00:20:10;10.70;78.30
14798;DHT22;7490;63.708;20.368;2023-05-14T00:22:37;10.70;78.30
14798;DHT22;7490;63.708;20.368;2023-05-14T00:25:03;10.70;78.40
14798;DHT22;7490;63.708;20.368;2023-05-14T00:27:29;10.70;78.50
14798;DHT22;7490;63.708;20.368;2023-05-14T00:29:55;10.70;78.60
14798;DHT22;7490;63.708;20.368;2023-05-14T00:32:20;10.70;78.70
14798;DHT22;7490;63.708;20.368;2023-05-14T00:34:46;10.70;78.80
14798;DHT22;7490;63.708;20.368;2023-05-14T00:37:12;10.60;79.00
14798;DHT22;7490;63.708;20.368;2023-05-14T00:39:37;10.60;79.00
14798;DHT22;7490;63.708;20.368;2023-05-14T00:42:03;10.50;79.10
14798;DHT22;7490;63.708;20.368;2023-05-14T00:44:29;10.50;79.30
14798;DHT22;7490;63.708;20.368;2023-05-14T00:46:54;10.50;79.50
14798;DHT22;7490;63.708;20.368;2023-05-14T00:49:20;10.40;79.70
14798;DHT22;7490;63.708;20.368;2023-05-14T00:51:46;10.40;80.00
14798;DHT22;7490;63.708;20.368;2023-05-14T00:54:14;10.40;80.20
14798;DHT22;7490;63.708;20.368;2023-05-14T00:56:40;10.40;80.40
14798;DHT22;7490;63.708;20.368;2023-05-14T00:59:06;10.40;80.60
14798;DHT22;7490;63.708;20.368;2023-05-14T01:01:31;10.40;80.80
14798;DHT22;7490;63.708;20.368;2023-05-14T01:03:57;10.30;80.80
14798;DHT22;7490;63.708;20.368;2023-05-14T01:06:28;10.30;80.90
14798;DHT22;7490;63.708;20.368;2023-05-14T01:11:32;10.30;81.30
14798;DHT22;7490;63.708;20.368;2023-05-14T01:16:57;10.30;81.50
14798;DHT22;7490;63.708;20.368;2023-05-14T01:19:38;10.30;81.30
14798;DHT22;7490;63.708;20.368;2023-05-14T01:22:04;10.30;81.60
14798;DHT22;7490;63.708;20.368;2023-05-14T01:24:30;10.30;81.60
14798;DHT22;7490;63.708;20.368;2023-05-14T01:27:05;10.30;81.70
14798;DHT22;7490;63.708;20.368;2023-05-14T01:29:33;10.20;81.90
14798;DHT22;7490;63.708;20.368;2023-05-14T01:32:05;10.20;81.90
14798;DHT22;7490;63.708;20.368;2023-05-14T01:34:32;10.20;82.00
14798;DHT22;7490;63.708;20.368;2023-05-14T01:37:00;10.20;82.10
14798;DHT22;7490;63.708;20.368;2023-05-14T01:39:27;10.20;82.10
14798;DHT22;7490;63.708;20.368;2023-05-14T01:41:53;10.20;82.10
14798;DHT22;7490;63.708;20.368;2023-05-14T01:44:20;10.20;82.20
14798;DHT22;7490;63.708;20.368;2023-05-14T01:46:46;10.20;82.10
14798;DHT22;7490;63.708;20.368;2023-05-14T01:49:11;10.20;82.10
14798;DHT22;7490;63.708;20.368;2023-05-14T01:51:37;10.30;82.10
14798;DHT22;7490;63.708;20.368;2023-05-14T01:54:03;10.30;82.20
14798;DHT22;7490;63.708;20.368;2023-05-14T01:56:28;10.30;82.30
14798;DHT22;7490;63.708;20.368;2023-05-14T01:58:54;10.30;82.30
14798;DHT22;7490;63.708;20.368;2023-05-14T02:01:21;10.30;82.20
14798;DHT22;7490;63.708;20.368;2023-05-14T02:03:47;10.30;82.20
14798;DHT22;7490;63.708;20.368;2023-05-14T02:06:12;10.30;82.20
14798;DHT22;7490;63.708;20.368;2023-05-14T02:08:38;10.30;82.20
14798;DHT22;7490;63.708;20.368;2023-05-14T02:11:04;10.40;82.20
14798;DHT22;7490;63.708;20.368;2023-05-14T02:13:29;10.40;82.10
14798;DHT22;7490;63.708;20.368;2023-05-14T02:15:55;10.40;82.10
14798;DHT22;7490;63.708;20.368;2023-05-14T02:18:21;10.40;82.10
14798;DHT22;7490;63.708;20.368;2023-05-14T02:20:46;10.40;82.20
14798;DHT22;7490;63.708;20.368;2023-05-14T02:23:12;10.40;82.20
14798;DHT22;7490;63.708;20.368;2023-05-14T02:25:38;10.40;82.30
14798;DHT22;7490;63.708;20.368;2023-05-14T02:28:03;10.40;82.50
14798;DHT22;7490;63.708;20.368;2023-05-14T02:30:29;10.40;82.60
14798;DHT22;7490;63.708;20.368;2023-05-14T02:32:56;10.50;82.80
14798;DHT22;7490;63.708;20.368;2023-05-14T02:35:22;10.50;83.00
14798;DHT22;7490;63.708;20.368;2023-05-14T02:37:47;10.50;83.20
14798;DHT22;7490;63.708;20.368;2023-05-14T02:40:13;10.50;83.30
14798;DHT22;7490;63.708;20.368;2023-05-14T02:42:39;10.60;83.50
14798;DHT22;7490;63.708;20.368;2023-05-14T02:45:05;10.60;83.50
14798;DHT22;7490;63.708;20.368;2023-05-14T02:47:31;10.70;83.70
14798;DHT22;7490;63.708;20.368;2023-05-14T02:49:57;10.70;83.80
14798;DHT22;7490;63.708;20.368;2023-05-14T02:52:22;10.80;84.40
14798;DHT22;7490;63.708;20.368;2023-05-14T02:54:48;11.00;85.10
14798;DHT22;7490;63.708;20.368;2023-05-14T02:57:13;11.30;85.70
14798;DHT22;7490;63.708;20.368;2023-05-14T02:59:39;11.60;85.70
14798;DHT22;7490;63.708;20.368;2023-05-14T03:02:05;11.90;86.40
14798;DHT22;7490;63.708;20.368;2023-05-14T03:04:31;12.20;85.00
14798;DHT22;7490;63.708;20.368;2023-05-14T03:06:57;12.50;84.70
14798;DHT22;7490;63.708;20.368;2023-05-14T03:09:22;12.90;84.40
14798;DHT22;7490;63.708;20.368;2023-05-14T03:11:49;13.20;83.50
14798;DHT22;7490;63.708;20.368;2023-05-14T03:14:14;13.50;82.60
14798;DHT22;7490;63.708;20.368;2023-05-14T03:16:40;13.80;81.60
14798;DHT22;7490;63.708;20.368;2023-05-14T03:19:06;14.10;80.70
14798;DHT22;7490;63.708;20.368;2023-05-14T03:21:34;14.30;79.80
14798;DHT22;7490;63.708;20.368;2023-05-14T03:23:59;14.70;78.90
14798;DHT22;7490;63.708;20.368;2023-05-14T03:26:25;14.90;77.90
14798;DHT22;7490;63.708;20.368;2023-05-14T03:28:50;15.20;77.10
14798;DHT22;7490;63.708;20.368;2023-05-14T03:31:16;15.40;76.10
14798;DHT22;7490;63.708;20.368;2023-05-14T03:33:42;15.60;75.20
14798;DHT22;7490;63.708;20.368;2023-05-14T03:36:07;15.90;74.40
14798;DHT22;7490;63.708;20.368;2023-05-14T03:38:33;16.20;73.50
14798;DHT22;7490;63.708;20.368;2023-05-14T03:40:59;16.50;72.70
14798;DHT22;7490;63.708;20.368;2023-05-14T03:43:24;16.90;71.50
14798;DHT22;7490;63.708;20.368;2023-05-14T03:45:50;17.20;70.30
14798;DHT22;7490;63.708;20.368;2023-05-14T03:48:20;17.50;69.20
14798;DHT22;7490;63.708;20.368;2023-05-14T03:50:46;17.80;68.00
14798;DHT22;7490;63.708;20.368;2023-05-14T03:53:11;18.00;66.80
14798;DHT22;7490;63.708;20.368;2023-05-14T03:55:37;18.20;65.90
14798;DHT22;7490;63.708;20.368;2023-05-14T03:58:03;18.50;65.20
14798;DHT22;7490;63.708;20.368;2023-05-14T04:00:31;18.70;64.30
14798;DHT22;7490;63.708;20.368;2023-05-14T04:02:57;18.90;63.50
14798;DHT22;7490;63.708;20.368;2023-05-14T04:05:23;19.20;62.80
14798;DHT22;7490;63.708;20.368;2023-05-14T04:07:49;19.40;62.00
14798;DHT22;7490;63.708;20.368;2023-05-14T04:10:14;19.70;61.40
14798;DHT22;7490;63.708;20.368;2023-05-14T04:12:40;19.80;60.70
14798;DHT22;7490;63.708;20.368;2023-05-14T04:15:06;19.90;60.30
14798;DHT22;7490;63.708;20.368;2023-05-14T04:17:32;20.10;60.00
14798;DHT22;7490;63.708;20.368;2023-05-14T04:19:58;20.20;59.90
14798;DHT22;7490;63.708;20.368;2023-05-14T04:22:23;20.30;59.80
14798;DHT22;7490;63.708;20.368;2023-05-14T04:24:49;20.30;59.60
14798;DHT22;7490;63.708;20.368;2023-05-14T04:27:21;20.40;60.10
14798;DHT22;7490;63.708;20.368;2023-05-14T04:29:47;20.40;58.90
14798;DHT22;7490;63.708;20.368;2023-05-14T04:32:13;20.40;58.80
14798;DHT22;7490;63.708;20.368;2023-05-14T04:34:39;20.50;58.50
14798;DHT22;7490;63.708;20.368;2023-05-14T04:37:05;20.60;57.90
14798;DHT22;7490;63.708;20.368;2023-05-14T04:39:31;20.80;57.20
14798;DHT22;7490;63.708;20.368;2023-05-14T04:41:56;21.10;56.50
14798;DHT22;7490;63.708;20.368;2023-05-14T04:44:22;21.30;55.80
14798;DHT22;7490;63.708;20.368;2023-05-14T04:46:48;21.70;54.90
14798;DHT22;7490;63.708;20.368;2023-05-14T04:49:13;22.10;54.10
14798;DHT22;7490;63.708;20.368;2023-05-14T04:51:39;22.50;53.30
14798;DHT22;7490;63.708;20.368;2023-05-14T04:54:05;23.00;52.20
14798;DHT22;7490;63.708;20.368;2023-05-14T04:56:30;23.30;51.10
14798;DHT22;7490;63.708;20.368;2023-05-14T04:58:56;23.60;50.40
14798;DHT22;7490;63.708;20.368;2023-05-14T05:01:22;23.90;49.60
14798;DHT22;7490;63.708;20.368;2023-05-14T05:03:47;24.10;49.10
14798;DHT22;7490;63.708;20.368;2023-05-14T05:06:13;24.30;48.60
14798;DHT22;7490;63.708;20.368;2023-05-14T05:08:39;24.50;48.10
14798;DHT22;7490;63.708;20.368;2023-05-14T05:11:05;24.50;47.90
14798;DHT22;7490;63.708;20.368;2023-05-14T05:13:31;24.50;47.90
14798;DHT22;7490;63.708;20.368;2023-05-14T05:15:57;24.40;47.90
14798;DHT22;7490;63.708;20.368;2023-05-14T05:18:22;24.30;48.00
14798;DHT22;7490;63.708;20.368;2023-05-14T05:20:48;24.30;48.20
14798;DHT22;7490;63.708;20.368;2023-05-14T05:23:14;24.40;47.80
14798;DHT22;7490;63.708;20.368;2023-05-14T05:25:39;24.50;47.30
14798;DHT22;7490;63.708;20.368;2023-05-14T05:28:05;24.90;46.90
14798;DHT22;7490;63.708;20.368;2023-05-14T05:30:31;25.10;46.20
14798;DHT22;7490;63.708;20.368;2023-05-14T05:32:57;25.50;45.90
14798;DHT22;7490;63.708;20.368;2023-05-14T05:35:22;25.90;45.20
14798;DHT22;7490;63.708;20.368;2023-05-14T05:37:48;26.40;44.40
14798;DHT22;7490;63.708;20.368;2023-05-14T05:40:14;26.80;43.60
14798;DHT22;7490;63.708;20.368;2023-05-14T05:42:40;27.20;43.10
14798;DHT22;7490;63.708;20.368;2023-05-14T05:45:06;27.70;42.50
14798;DHT22;7490;63.708;20.368;2023-05-14T05:47:32;28.10;41.90
14798;DHT22;7490;63.708;20.368;2023-05-14T05:49:58;28.50;41.20
14798;DHT22;7490;63.708;20.368;2023-05-14T05:52:24;28.80;40.50
14798;DHT22;7490;63.708;20.368;2023-05-14T05:54:49;29.00;39.90
14798;DHT22;7490;63.708;20.368;2023-05-14T05:57:15;29.20;39.50
14798;DHT22;7490;63.708;20.368;2023-05-14T05:59:41;29.40;39.60
14798;DHT22;7490;63.708;20.368;2023-05-14T06:02:06;29.50;38.80
14798;DHT22;7490;63.708;20.368;2023-05-14T06:04:32;29.80;38.40
14798;DHT22;7490;63.708;20.368;2023-05-14T06:06:58;30.00;37.90
14798;DHT22;7490;63.708;20.368;2023-05-14T06:09:23;30.20;38.20
14798;DHT22;7490;63.708;20.368;2023-05-14T06:11:49;30.30;37.30
14798;DHT22;7490;63.708;20.368;2023-05-14T06:14:15;30.50;36.90
14798;DHT22;7490;63.708;20.368;2023-05-14T06:16:40;30.80;36.40
14798;DHT22;7490;63.708;20.368;2023-05-14T06:19:06;31.00;36.10
14798;DHT22;7490;63.708;20.368;2023-05-14T06:21:32;31.10;35.70
14798;DHT22;7490;63.708;20.368;2023-05-14T06:23:58;31.20;35.40
14798;DHT22;7490;63.708;20.368;2023-05-14T06:26:24;31.30;35.30
14798;DHT22;7490;63.708;20.368;2023-05-14T06:28:50;31.40;35.00
14798;DHT22;7490;63.708;20.368;2023-05-14T06:31:17;31.50;34.70
14798;DHT22;7490;63.708;20.368;2023-05-14T06:33:42;31.20;34.40
14798;DHT22;7490;63.708;20.368;2023-05-14T06:36:08;31.00;34.70
14798;DHT22;7490;63.708;20.368;2023-05-14T06:38:34;31.00;35.10
14798;DHT22;7490;63.708;20.368;2023-05-14T06:41:00;31.20;34.80
14798;DHT22;7490;63.708;20.368;2023-05-14T06:43:25;31.40;34.50
14798;DHT22;7490;63.708;20.368;2023-05-14T06:45:51;31.50;34.00
14798;DHT22;7490;63.708;20.368;2023-05-14T06:48:17;31.60;33.70
14798;DHT22;7490;63.708;20.368;2023-05-14T06:50:44;31.60;33.40
14798;DHT22;7490;63.708;20.368;2023-05-14T06:53:10;31.50;33.40
14798;DHT22;7490;63.708;20.368;2023-05-14T06:55:35;31.30;33.20
14798;DHT22;7490;63.708;20.368;2023-05-14T06:58:01;31.00;33.70
14798;DHT22;7490;63.708;20.368;2023-05-14T07:00:27;30.80;33.80
14798;DHT22;7490;63.708;20.368;2023-05-14T07:02:53;30.40;33.90
14798;DHT22;7490;63.708;20.368;2023-05-14T07:05:18;30.10;34.60
14798;DHT22;7490;63.708;20.368;2023-05-14T07:07:44;30.00;35.00
14798;DHT22;7490;63.708;20.368;2023-05-14T07:10:09;30.20;34.60
14798;DHT22;7490;63.708;20.368;2023-05-14T07:12:35;30.20;34.60
14798;DHT22;7490;63.708;20.368;2023-05-14T07:15:01;30.40;34.40
14798;DHT22;7490;63.708;20.368;2023-05-14T07:17:27;30.60;34.00
14798;DHT22;7490;63.708;20.368;2023-05-14T07:19:52;30.40;34.00
14798;DHT22;7490;63.708;20.368;2023-05-14T07:22:20;30.30;34.20
14798;DHT22;7490;63.708;20.368;2023-05-14T07:24:46;30.30;34.20
14798;DHT22;7490;63.708;20.368;2023-05-14T07:27:12;30.40;33.90
14798;DHT22;7490;63.708;20.368;2023-05-14T07:29:38;30.30;33.70
14798;DHT22;7490;63.708;20.368;2023-05-14T07:32:03;30.00;34.00
14798;DHT22;7490;63.708;20.368;2023-05-14T07:34:29;29.90;34.30
14798;DHT22;7490;63.708;20.368;2023-05-14T07:36:55;29.90;34.50
14798;DHT22;7490;63.708;20.368;2023-05-14T07:39:20;29.90;34.20
14798;DHT22;7490;63.708;20.368;2023-05-14T07:41:46;29.90;34.20
14798;DHT22;7490;63.708;20.368;2023-05-14T07:44:11;30.00;34.30
14798;DHT22;7490;63.708;20.368;2023-05-14T07:46:37;30.20;34.40
14798;DHT22;7490;63.708;20.368;2023-05-14T07:49:03;30.40;34.00
14798;DHT22;7490;63.708;20.368;2023-05-14T07:51:29;30.60;33.60
14798;DHT22;7490;63.708;20.368;2023-05-14T07:53:54;30.80;33.20
14798;DHT22;7490;63.708;20.368;2023-05-14T07:56:21;30.90;33.10
14798;DHT22;7490;63.708;20.368;2023-05-14T07:58:47;31.10;33.20
14798;DHT22;7490;63.708;20.368;2023-05-14T08:01:12;31.50;32.90
14798;DHT22;7490;63.708;20.368;2023-05-14T08:03:38;31.80;32.40
14798;DHT22;7490;63.708;20.368;2023-05-14T08:06:04;31.90;32.10
14798;DHT22;7490;63.708;20.368;2023-05-14T08:08:30;31.90;32.10
14798;DHT22;7490;63.708;20.368;2023-05-14T08:10:55;32.00;31.90
14798;DHT22;7490;63.708;20.368;2023-05-14T08:13:21;32.00;31.80
14798;DHT22;7490;63.708;20.368;2023-05-14T08:15:47;31.70;32.00
14798;DHT22;7490;63.708;20.368;2023-05-14T08:18:13;31.30;32.60
14798;DHT22;7490;63.708;20.368;2023-05-14T08:20:38;30.80;32.80
14798;DHT22;7490;63.708;20.368;2023-05-14T08:23:04;30.20;33.70
14798;DHT22;7490;63.708;20.368;2023-05-14T08:25:31;29.70;33.90
14798;DHT22;7490;63.708;20.368;2023-05-14T08:27:57;29.40;34.40
14798;DHT22;7490;63.708;20.368;2023-05-14T08:30:24;29.30;34.70
14798;DHT22;7490;63.708;20.368;2023-05-14T08:32:50;29.60;34.40
14798;DHT22;7490;63.708;20.368;2023-05-14T08:35:18;29.90;34.20
14798;DHT22;7490;63.708;20.368;2023-05-14T08:37:44;30.30;33.80
14798;DHT22;7490;63.708;20.368;2023-05-14T08:40:10;30.70;33.50
14798;DHT22;7490;63.708;20.368;2023-05-14T08:42:37;30.90;33.10
14798;DHT22;7490;63.708;20.368;2023-05-14T08:45:17;30.90;32.80
14798;DHT22;7490;63.708;20.368;2023-05-14T08:47:46;30.50;32.90
14798;DHT22;7490;63.708;20.368;2023-05-14T08:50:13;29.80;33.30
14798;DHT22;7490;63.708;20.368;2023-05-14T08:52:39;29.20;34.10
14798;DHT22;7490;63.708;20.368;2023-05-14T08:55:05;28.50;34.80
14798;DHT22;7490;63.708;20.368;2023-05-14T08:57:33;27.80;35.70
14798;DHT22;7490;63.708;20.368;2023-05-14T08:59:59;27.20;36.40
14798;DHT22;7490;63.708;20.368;2023-05-14T09:02:29;26.50;37.10
14798;DHT22;7490;63.708;20.368;2023-05-14T09:04:57;25.80;37.80
14798;DHT22;7490;63.708;20.368;2023-05-14T09:07:24;25.30;38.40
14798;DHT22;7490;63.708;20.368;2023-05-14T09:09:53;24.90;39.00
14798;DHT22;7490;63.708;20.368;2023-05-14T09:12:19;24.60;39.40
14798;DHT22;7490;63.708;20.368;2023-05-14T09:14:47;24.40;39.40
14798;DHT22;7490;63.708;20.368;2023-05-14T09:17:13;24.20;39.50
14798;DHT22;7490;63.708;20.368;2023-05-14T09:19:40;24.10;39.70
14798;DHT22;7490;63.708;20.368;2023-05-14T09:22:11;24.00;39.90
14798;DHT22;7490;63.708;20.368;2023-05-14T09:24:37;24.00;40.20
14798;DHT22;7490;63.708;20.368;2023-05-14T09:27:03;24.00;40.10
14798;DHT22;7490;63.708;20.368;2023-05-14T09:29:30;23.90;40.50
14798;DHT22;7490;63.708;20.368;2023-05-14T09:31:57;23.80;40.60
14798;DHT22;7490;63.708;20.368;2023-05-14T09:34:28;23.50;41.00
14798;DHT22;7490;63.708;20.368;2023-05-14T09:37:06;23.20;41.20
14798;DHT22;7490;63.708;20.368;2023-05-14T09:39:33;23.00;41.70
14798;DHT22;7490;63.708;20.368;2023-05-14T09:41:59;22.80;42.10
14798;DHT22;7490;63.708;20.368;2023-05-14T09:44:27;22.60;42.50
14798;DHT22;7490;63.708;20.368;2023-05-14T09:46:53;22.40;43.10
14798;DHT22;7490;63.708;20.368;2023-05-14T09:49:19;22.40;43.20
14798;DHT22;7490;63.708;20.368;2023-05-14T09:51:44;22.30;43.10
14798;DHT22;7490;63.708;20.368;2023-05-14T09:54:10;22.50;43.00
14798;DHT22;7490;63.708;20.368;2023-05-14T09:56:36;22.40;42.80
14798;DHT22;7490;63.708;20.368;2023-05-14T09:59:03;22.40;42.90
14798;DHT22;7490;63.708;20.368;2023-05-14T10:01:30;22.30;42.90
14798;DHT22;7490;63.708;20.368;2023-05-14T10:03:57;22.40;42.90
14798;DHT22;7490;63.708;20.368;2023-05-14T10:06:30;22.50;42.30
14798;DHT22;7490;63.708;20.368;2023-05-14T10:09:01;22.40;41.70
14798;DHT22;7490;63.708;20.368;2023-05-14T10:11:30;22.40;41.50
14798;DHT22;7490;63.708;20.368;2023-05-14T10:16:32;22.10;41.20
14798;DHT22;7490;63.708;20.368;2023-05-14T10:19:09;22.00;41.20
14798;DHT22;7490;63.708;20.368;2023-05-14T10:21:36;21.80;41.20
14798;DHT22;7490;63.708;20.368;2023-05-14T10:24:03;21.50;41.60
14798;DHT22;7490;63.708;20.368;2023-05-14T10:26:31;21.40;42.00
14798;DHT22;7490;63.708;20.368;2023-05-14T10:28:57;21.30;42.40
14798;DHT22;7490;63.708;20.368;2023-05-14T10:37:15;22.60;41.00
14798;DHT22;7490;63.708;20.368;2023-05-14T10:47:14;24.80;37.30
14798;DHT22;7490;63.708;20.368;2023-05-14T10:49:42;25.10;36.90
14798;DHT22;7490;63.708;20.368;2023-05-14T10:52:09;25.30;36.50
14798;DHT22;7490;63.708;20.368;2023-05-14T10:54:35;25.30;35.80
14798;DHT22;7490;63.708;20.368;2023-05-14T10:57:01;25.30;35.60
14798;DHT22;7490;63.708;20.368;2023-05-14T10:59:27;25.20;35.80
14798;DHT22;7490;63.708;20.368;2023-05-14T11:01:53;25.20;35.80
14798;DHT22;7490;63.708;20.368;2023-05-14T11:04:21;25.30;36.10
14798;DHT22;7490;63.708;20.368;2023-05-14T11:06:47;25.30;35.10
14798;DHT22;7490;63.708;20.368;2023-05-14T11:09:16;25.10;34.70
14798;DHT22;7490;63.708;20.368;2023-05-14T11:11:42;24.50;35.20
14798;DHT22;7490;63.708;20.368;2023-05-14T11:14:09;23.70;36.10
14798;DHT22;7490;63.708;20.368;2023-05-14T11:16:34;22.90;37.00
14798;DHT22;7490;63.708;20.368;2023-05-14T11:19:03;22.20;37.80
14798;DHT22;7490;63.708;20.368;2023-05-14T11:21:29;21.60;38.70
14798;DHT22;7490;63.708;20.368;2023-05-14T11:23:58;21.10;39.30
14798;DHT22;7490;63.708;20.368;2023-05-14T11:26:24;20.70;39.80
14798;DHT22;7490;63.708;20.368;2023-05-14T11:28:50;20.40;40.10
14798;DHT22;7490;63.708;20.368;2023-05-14T11:31:16;20.10;40.30
14798;DHT22;7490;63.708;20.368;2023-05-14T11:33:41;19.80;40.70
14798;DHT22;7490;63.708;20.368;2023-05-14T11:36:09;19.70;41.30
14798;DHT22;7490;63.708;20.368;2023-05-14T11:38:45;19.60;41.50
14798;DHT22;7490;63.708;20.368;2023-05-14T11:41:13;19.50;41.60
14798;DHT22;7490;63.708;20.368;2023-05-14T11:43:39;19.40;42.40
14798;DHT22;7490;63.708;20.368;2023-05-14T11:46:05;19.40;41.80
14798;DHT22;7490;63.708;20.368;2023-05-14T11:48:31;19.40;41.80
14798;DHT22;7490;63.708;20.368;2023-05-14T11:50:57;19.50;42.00
14798;DHT22;7490;63.708;20.368;2023-05-14T11:53:29;19.50;41.80
14798;DHT22;7490;63.708;20.368;2023-05-14T11:55:55;19.50;41.70
14798;DHT22;7490;63.708;20.368;2023-05-14T11:58:24;19.60;40.90
14798;DHT22;7490;63.708;20.368;2023-05-14T12:00:51;19.70;40.40
14798;DHT22;7490;63.708;20.368;2023-05-14T12:03:20;19.80;40.20
14798;DHT22;7490;63.708;20.368;2023-05-14T12:05:57;19.80;40.40
14798;DHT22;7490;63.708;20.368;2023-05-14T12:08:30;19.90;40.80
14798;DHT22;7490;63.708;20.368;2023-05-14T12:10:57;20.00;40.90
14798;DHT22;7490;63.708;20.368;2023-05-14T12:13:28;20.00;41.00
14798;DHT22;7490;63.708;20.368;2023-05-14T12:15:56;19.80;41.10
14798;DHT22;7490;63.708;20.368;2023-05-14T12:18:27;19.70;41.30
14798;DHT22;7490;63.708;20.368;2023-05-14T12:20:53;19.60;41.60
14798;DHT22;7490;63.708;20.368;2023-05-14T12:23:27;19.50;41.90
14798;DHT22;7490;63.708;20.368;2023-05-14T12:25:53;19.40;42.10
14798;DHT22;7490;63.708;20.368;2023-05-14T12:28:19;19.30;42.50
14798;DHT22;7490;63.708;20.368;2023-05-14T12:30:45;19.20;43.00
14798;DHT22;7490;63.708;20.368;2023-05-14T12:33:12;19.20;43.40
14798;DHT22;7490;63.708;20.368;2023-05-14T12:35:38;19.20;43.80
14798;DHT22;7490;63.708;20.368;2023-05-14T12:38:04;19.10;44.00
14798;DHT22;7490;63.708;20.368;2023-05-14T12:40:29;19.10;44.30
14798;DHT22;7490;63.708;20.368;2023-05-14T12:42:55;19.10;44.40
14798;DHT22;7490;63.708;20.368;2023-05-14T12:45:21;19.10;44.40
14798;DHT22;7490;63.708;20.368;2023-05-14T12:47:46;19.10;44.40
14798;DHT22;7490;63.708;20.368;2023-05-14T12:50:12;19.10;44.40
14798;DHT22;7490;63.708;20.368;2023-05-14T12:52:38;19.10;44.30
14798;DHT22;7490;63.708;20.368;2023-05-14T12:55:04;19.10;44.40
14798;DHT22;7490;63.708;20.368;2023-05-14T12:57:30;19.00;44.40
14798;DHT22;7490;63.708;20.368;2023-05-14T12:59:56;19.00;44.50
14798;DHT22;7490;63.708;20.368;2023-05-14T13:02:22;19.00;44.60
14798;DHT22;7490;63.708;20.368;2023-05-14T13:04:47;19.00;44.80
14798;DHT22;7490;63.708;20.368;2023-05-14T13:07:13;19.10;44.80
14798;DHT22;7490;63.708;20.368;2023-05-14T13:09:39;19.10;45.00
14798;DHT22;7490;63.708;20.368;2023-05-14T13:12:05;19.20;43.70
14798;DHT22;7490;63.708;20.368;2023-05-14T13:14:30;19.20;43.10
14798;DHT22;7490;63.708;20.368;2023-05-14T13:16:56;19.20;42.90
14798;DHT22;7490;63.708;20.368;2023-05-14T13:19:22;19.20;42.70
14798;DHT22;7490;63.708;20.368;2023-05-14T13:21:47;19.20;43.20
14798;DHT22;7490;63.708;20.368;2023-05-14T13:24:13;19.20;43.00
14798;DHT22;7490;63.708;20.368;2023-05-14T13:26:39;19.20;43.40
14798;DHT22;7490;63.708;20.368;2023-05-14T13:29:05;19.20;43.60
14798;DHT22;7490;63.708;20.368;2023-05-14T13:31:31;19.20;43.50
14798;DHT22;7490;63.708;20.368;2023-05-14T13:33:56;19.20;43.50
14798;DHT22;7490;63.708;20.368;2023-05-14T13:36:23;19.20;43.40
14798;DHT22;7490;63.708;20.368;2023-05-14T13:38:49;19.20;43.20
14798;DHT22;7490;63.708;20.368;2023-05-14T13:41:15;19.10;42.90
14798;DHT22;7490;63.708;20.368;2023-05-14T13:43:40;19.10;42.80
14798;DHT22;7490;63.708;20.368;2023-05-14T13:46:06;19.00;42.80
14798;DHT22;7490;63.708;20.368;2023-05-14T13:48:32;18.90;42.80
14798;DHT22;7490;63.708;20.368;2023-05-14T13:50:58;18.90;42.50
14798;DHT22;7490;63.708;20.368;2023-05-14T13:53:24;18.80;42.40
14798;DHT22;7490;63.708;20.368;2023-05-14T13:55:50;18.80;42.50
14798;DHT22;7490;63.708;20.368;2023-05-14T13:58:26;18.70;42.40
14798;DHT22;7490;63.708;20.368;2023-05-14T14:00:52;18.70;42.40
14798;DHT22;7490;63.708;20.368;2023-05-14T14:03:18;18.60;42.30
14798;DHT22;7490;63.708;20.368;2023-05-14T14:05:44;18.60;42.30
14798;DHT22;7490;63.708;20.368;2023-05-14T14:08:10;18.50;42.40
14798;DHT22;7490;63.708;20.368;2023-05-14T14:10:35;18.50;42.40
14798;DHT22;7490;63.708;20.368;2023-05-14T14:13:03;18.40;42.40
14798;DHT22;7490;63.708;20.368;2023-05-14T14:15:29;18.40;42.50
14798;DHT22;7490;63.708;20.368;2023-05-14T14:17:55;18.40;42.50
14798;DHT22;7490;63.708;20.368;2023-05-14T14:20:20;18.40;42.60
14798;DHT22;7490;63.708;20.368;2023-05-14T14:22:46;18.40;42.80
14798;DHT22;7490;63.708;20.368;2023-05-14T14:25:11;18.40;42.60
14798;DHT22;7490;63.708;20.368;2023-05-14T14:27:38;18.30;42.60
14798;DHT22;7490;63.708;20.368;2023-05-14T14:30:08;18.30;42.50
14798;DHT22;7490;63.708;20.368;2023-05-14T14:32:47;18.20;42.60
14798;DHT22;7490;63.708;20.368;2023-05-14T14:35:15;18.20;42.50
14798;DHT22;7490;63.708;20.368;2023-05-14T14:37:41;18.20;42.40
14798;DHT22;7490;63.708;20.368;2023-05-14T14:40:10;18.10;42.60
14798;DHT22;7490;63.708;20.368;2023-05-14T14:42:36;18.10;42.60
14798;DHT22;7490;63.708;20.368;2023-05-14T14:45:03;18.10;42.80
14798;DHT22;7490;63.708;20.368;2023-05-14T14:47:29;18.10;42.80
14798;DHT22;7490;63.708;20.368;2023-05-14T14:49:56;18.00;42.70
14798;DHT22;7490;63.708;20.368;2023-05-14T14:52:25;18.00;42.80
14798;DHT22;7490;63.708;20.368;2023-05-14T14:54:52;17.90;42.70
14798;DHT22;7490;63.708;20.368;2023-05-14T14:57:18;17.90;42.80
14798;DHT22;7490;63.708;20.368;2023-05-14T14:59:44;17.90;42.70
14798;DHT22;7490;63.708;20.368;2023-05-14T15:02:09;17.90;42.70
14798;DHT22;7490;63.708;20.368;2023-05-14T15:04:36;17.90;42.60
14798;DHT22;7490;63.708;20.368;2023-05-14T15:07:03;17.80;42.50
14798;DHT22;7490;63.708;20.368;2023-05-14T15:09:28;17.70;42.50
14798;DHT22;7490;63.708;20.368;2023-05-14T15:11:54;17.70;42.60
14798;DHT22;7490;63.708;20.368;2023-05-14T15:14:20;17.60;42.70
14798;DHT22;7490;63.708;20.368;2023-05-14T15:16:45;17.60;43.00
14798;DHT22;7490;63.708;20.368;2023-05-14T15:19:11;17.60;43.20
14798;DHT22;7490;63.708;20.368;2023-05-14T15:21:36;17.60;43.10
14798;DHT22;7490;63.708;20.368;2023-05-14T15:24:03;17.50;43.20
14798;DHT22;7490;63.708;20.368;2023-05-14T15:26:29;17.40;43.30
14798;DHT22;7490;63.708;20.368;2023-05-14T15:28:55;17.40;43.60
14798;DHT22;7490;63.708;20.368;2023-05-14T15:31:22;17.40;44.00
14798;DHT22;7490;63.708;20.368;2023-05-14T15:33:48;17.40;44.00
14798;DHT22;7490;63.708;20.368;2023-05-14T15:36:14;17.40;44.10
14798;DHT22;7490;63.708;20.368;2023-05-14T15:38:39;17.40;44.10
14798;DHT22;7490;63.708;20.368;2023-05-14T15:41:05;17.30;44.20
14798;DHT22;7490;63.708;20.368;2023-05-14T15:43:31;17.30;45.00
14798;DHT22;7490;63.708;20.368;2023-05-14T15:45:56;17.20;44.50